sensor_id;sensor_type;location;lat;lon;timestamp;P1;durP1;ratioP1;P2;durP2;ratioP2
47715;SDS011;33476;50.984;3.538;2022-09-03T00:01:07;7.63;;;5.57;;
47715;SDS011;33476;50.984;3.538;2022-09-03T00:03:38;8.05;;;5.75;;
47715;SDS011;33476;50.984;3.538;2022-09-03T00:14:49;8.20;;;5.45;;
47715;SDS011;33476;50.984;3.538;2022-09-03T00:17:21;6.03;;;4.90;;
47715;SDS011;33476;50.984;3.538;2022-09-03T00:20:05;7.38;;;5.35;;
47715;SDS011;33476;50.984;3.538;2022-09-03T00:22:41;5.97;;;5.07;;
47715;SDS011;33476;50.984;3.538;2022-09-03T00:25:11;7.53;;;5.00;;
47715;SDS011;33476;50.984;3.538;2022-09-03T00:27:41;7.22;;;5.50;;
47715;SDS011;33476;50.984;3.538;2022-09-03T00:30:12;6.18;;;4.80;;
47715;SDS011;33476;50.984;3.538;2022-09-03T00:38:18;6.60;;;5.03;;
47715;SDS011;33476;50.984;3.538;2022-09-03T00:54:34;6.93;;;5.95;;
47715;SDS011;33476;50.984;3.538;2022-09-03T00:59:44;10.35;;;5.68;;
47715;SDS011;33476;50.984;3.538;2022-09-03T01:08:29;7.28;;;6.28;;
47715;SDS011;33476;50.984;3.538;2022-09-03T01:14:35;8.30;;;6.53;;
47715;SDS011;33476;50.984;3.538;2022-09-03T01:28:32;9.55;;;6.22;;
47715;SDS011;33476;50.984;3.538;2022-09-03T01:37:21;6.97;;;6.03;;
47715;SDS011;33476;50.984;3.538;2022-09-03T01:40:12;9.73;;;6.03;;
47715;SDS011;33476;50.984;3.538;2022-09-03T01:42:52;7.85;;;6.03;;
47715;SDS011;33476;50.984;3.538;2022-09-03T01:51:20;8.13;;;6.20;;
47715;SDS011;33476;50.984;3.538;2022-09-03T02:00:08;9.18;;;5.70;;
47715;SDS011;33476;50.984;3.538;2022-09-03T02:02:38;7.55;;;5.32;;
47715;SDS011;33476;50.984;3.538;2022-09-03T02:07:46;10.40;;;6.55;;
47715;SDS011;33476;50.984;3.538;2022-09-03T02:10:19;8.95;;;5.75;;
47715;SDS011;33476;50.984;3.538;2022-09-03T02:12:53;7.53;;;6.30;;
47715;SDS011;33476;50.984;3.538;2022-09-03T02:15:21;6.15;;;5.55;;
47715;SDS011;33476;50.984;3.538;2022-09-03T02:17:49;10.85;;;6.53;;
47715;SDS011;33476;50.984;3.538;2022-09-03T02:20:19;6.90;;;5.82;;
47715;SDS011;33476;50.984;3.538;2022-09-03T02:22:48;7.40;;;6.50;;
47715;SDS011;33476;50.984;3.538;2022-09-03T02:25:14;9.43;;;6.22;;
47715;SDS011;33476;50.984;3.538;2022-09-03T02:27:41;8.43;;;6.75;;
47715;SDS011;33476;50.984;3.538;2022-09-03T02:30:08;8.00;;;6.97;;
47715;SDS011;33476;50.984;3.538;2022-09-03T02:32:34;7.72;;;6.30;;
47715;SDS011;33476;50.984;3.538;2022-09-03T02:34:59;6.85;;;6.15;;
47715;SDS011;33476;50.984;3.538;2022-09-03T02:37:25;9.10;;;6.30;;
47715;SDS011;33476;50.984;3.538;2022-09-03T02:39:50;7.60;;;6.20;;
47715;SDS011;33476;50.984;3.538;2022-09-03T02:42:16;8.32;;;6.60;;
47715;SDS011;33476;50.984;3.538;2022-09-03T02:45:26;7.25;;;6.22;;
47715;SDS011;33476;50.984;3.538;2022-09-03T02:47:40;11.02;;;6.57;;
47715;SDS011;33476;50.984;3.538;2022-09-03T02:50:09;7.82;;;6.28;;
47715;SDS011;33476;50.984;3.538;2022-09-03T02:52:34;7.47;;;6.32;;
47715;SDS011;33476;50.984;3.538;2022-09-03T02:55:00;9.40;;;6.57;;
47715;SDS011;33476;50.984;3.538;2022-09-03T02:57:25;6.95;;;5.68;;
47715;SDS011;33476;50.984;3.538;2022-09-03T02:59:52;9.93;;;5.93;;
47715;SDS011;33476;50.984;3.538;2022-09-03T03:02:18;8.05;;;6.20;;
47715;SDS011;33476;50.984;3.538;2022-09-03T03:04:43;9.95;;;6.70;;
47715;SDS011;33476;50.984;3.538;2022-09-03T03:07:09;9.18;;;6.10;;
47715;SDS011;33476;50.984;3.538;2022-09-03T03:09:34;7.90;;;6.07;;
47715;SDS011;33476;50.984;3.538;2022-09-03T03:11:59;12.07;;;6.10;;
47715;SDS011;33476;50.984;3.538;2022-09-03T03:14:25;7.68;;;6.10;;
47715;SDS011;33476;50.984;3.538;2022-09-03T03:16:50;8.48;;;6.38;;
47715;SDS011;33476;50.984;3.538;2022-09-03T03:19:16;13.57;;;6.20;;
47715;SDS011;33476;50.984;3.538;2022-09-03T03:21:42;8.23;;;6.43;;
47715;SDS011;33476;50.984;3.538;2022-09-03T03:24:07;10.45;;;6.65;;
47715;SDS011;33476;50.984;3.538;2022-09-03T03:26:33;10.05;;;6.13;;
47715;SDS011;33476;50.984;3.538;2022-09-03T03:28:59;7.72;;;5.93;;
47715;SDS011;33476;50.984;3.538;2022-09-03T03:31:28;7.38;;;5.90;;
47715;SDS011;33476;50.984;3.538;2022-09-03T03:33:55;10.00;;;6.43;;
47715;SDS011;33476;50.984;3.538;2022-09-03T03:36:23;10.25;;;6.65;;
47715;SDS011;33476;50.984;3.538;2022-09-03T03:38:51;8.35;;;6.88;;
47715;SDS011;33476;50.984;3.538;2022-09-03T03:41:19;11.15;;;6.75;;
47715;SDS011;33476;50.984;3.538;2022-09-03T03:43:46;10.13;;;6.38;;
47715;SDS011;33476;50.984;3.538;2022-09-03T03:46:12;10.10;;;7.10;;
47715;SDS011;33476;50.984;3.538;2022-09-03T03:48:39;8.55;;;7.18;;
47715;SDS011;33476;50.984;3.538;2022-09-03T03:51:07;10.60;;;7.85;;
47715;SDS011;33476;50.984;3.538;2022-09-03T03:53:34;11.60;;;7.25;;
47715;SDS011;33476;50.984;3.538;2022-09-03T03:56:01;8.82;;;6.82;;
47715;SDS011;33476;50.984;3.538;2022-09-03T03:58:29;10.13;;;7.05;;
47715;SDS011;33476;50.984;3.538;2022-09-03T04:00:55;9.23;;;6.43;;
47715;SDS011;33476;50.984;3.538;2022-09-03T04:03:33;8.90;;;6.55;;
47715;SDS011;33476;50.984;3.538;2022-09-03T04:06:00;10.05;;;6.95;;
47715;SDS011;33476;50.984;3.538;2022-09-03T04:08:27;10.43;;;7.32;;
47715;SDS011;33476;50.984;3.538;2022-09-03T04:10:52;9.77;;;7.53;;
47715;SDS011;33476;50.984;3.538;2022-09-03T04:13:18;14.85;;;8.35;;
47715;SDS011;33476;50.984;3.538;2022-09-03T04:15:44;8.27;;;7.15;;
47715;SDS011;33476;50.984;3.538;2022-09-03T04:18:10;10.73;;;7.13;;
47715;SDS011;33476;50.984;3.538;2022-09-03T04:20:36;11.93;;;6.85;;
47715;SDS011;33476;50.984;3.538;2022-09-03T04:23:02;11.85;;;7.68;;
47715;SDS011;33476;50.984;3.538;2022-09-03T04:25:28;9.73;;;7.05;;
47715;SDS011;33476;50.984;3.538;2022-09-03T04:27:56;7.97;;;7.13;;
47715;SDS011;33476;50.984;3.538;2022-09-03T04:30:22;10.75;;;7.25;;
47715;SDS011;33476;50.984;3.538;2022-09-03T04:32:50;9.25;;;6.68;;
47715;SDS011;33476;50.984;3.538;2022-09-03T04:35:20;10.10;;;7.43;;
47715;SDS011;33476;50.984;3.538;2022-09-03T04:37:47;13.52;;;7.53;;
47715;SDS011;33476;50.984;3.538;2022-09-03T04:40:12;8.80;;;7.07;;
47715;SDS011;33476;50.984;3.538;2022-09-03T04:42:38;11.27;;;8.00;;
47715;SDS011;33476;50.984;3.538;2022-09-03T04:45:04;10.27;;;7.47;;
47715;SDS011;33476;50.984;3.538;2022-09-03T04:47:30;9.43;;;6.97;;
47715;SDS011;33476;50.984;3.538;2022-09-03T04:49:55;9.73;;;7.53;;
47715;SDS011;33476;50.984;3.538;2022-09-03T04:52:21;9.88;;;7.03;;
47715;SDS011;33476;50.984;3.538;2022-09-03T04:54:46;10.00;;;7.40;;
47715;SDS011;33476;50.984;3.538;2022-09-03T04:57:12;9.35;;;7.03;;
47715;SDS011;33476;50.984;3.538;2022-09-03T04:59:37;13.63;;;7.45;;
47715;SDS011;33476;50.984;3.538;2022-09-03T05:02:05;10.45;;;7.65;;
47715;SDS011;33476;50.984;3.538;2022-09-03T05:04:31;8.90;;;7.07;;
47715;SDS011;33476;50.984;3.538;2022-09-03T05:06:56;9.80;;;7.25;;
47715;SDS011;33476;50.984;3.538;2022-09-03T05:09:22;13.30;;;7.60;;
47715;SDS011;33476;50.984;3.538;2022-09-03T05:11:47;10.57;;;6.78;;
47715;SDS011;33476;50.984;3.538;2022-09-03T05:14:12;12.85;;;8.00;;
47715;SDS011;33476;50.984;3.538;2022-09-03T05:16:38;10.65;;;7.65;;
47715;SDS011;33476;50.984;3.538;2022-09-03T05:19:03;11.77;;;7.82;;
47715;SDS011;33476;50.984;3.538;2022-09-03T05:21:30;10.63;;;7.60;;
47715;SDS011;33476;50.984;3.538;2022-09-03T05:23:55;11.05;;;7.55;;
47715;SDS011;33476;50.984;3.538;2022-09-03T05:26:25;10.57;;;8.10;;
47715;SDS011;33476;50.984;3.538;2022-09-03T05:28:53;12.00;;;8.40;;
47715;SDS011;33476;50.984;3.538;2022-09-03T05:31:20;8.90;;;7.80;;
47715;SDS011;33476;50.984;3.538;2022-09-03T05:33:47;16.10;;;7.45;;
47715;SDS011;33476;50.984;3.538;2022-09-03T05:36:16;12.57;;;8.25;;
47715;SDS011;33476;50.984;3.538;2022-09-03T05:38:44;9.80;;;7.97;;
47715;SDS011;33476;50.984;3.538;2022-09-03T05:41:11;11.00;;;8.30;;
47715;SDS011;33476;50.984;3.538;2022-09-03T05:43:41;8.75;;;7.80;;
47715;SDS011;33476;50.984;3.538;2022-09-03T05:46:07;10.88;;;8.02;;
47715;SDS011;33476;50.984;3.538;2022-09-03T05:48:35;12.57;;;7.82;;
47715;SDS011;33476;50.984;3.538;2022-09-03T05:51:12;11.70;;;8.27;;
47715;SDS011;33476;50.984;3.538;2022-09-03T05:53:45;11.63;;;8.07;;
47715;SDS011;33476;50.984;3.538;2022-09-03T05:56:15;14.93;;;8.57;;
47715;SDS011;33476;50.984;3.538;2022-09-03T05:58:43;13.70;;;9.00;;
47715;SDS011;33476;50.984;3.538;2022-09-03T06:01:14;15.32;;;8.85;;
47715;SDS011;33476;50.984;3.538;2022-09-03T06:03:56;17.08;;;9.20;;
47715;SDS011;33476;50.984;3.538;2022-09-03T06:06:24;15.65;;;9.50;;
47715;SDS011;33476;50.984;3.538;2022-09-03T06:08:54;13.48;;;9.63;;
47715;SDS011;33476;50.984;3.538;2022-09-03T06:11:22;13.20;;;9.90;;
47715;SDS011;33476;50.984;3.538;2022-09-03T06:13:55;12.05;;;9.15;;
47715;SDS011;33476;50.984;3.538;2022-09-03T06:16:21;14.30;;;9.80;;
47715;SDS011;33476;50.984;3.538;2022-09-03T06:18:48;14.20;;;10.55;;
47715;SDS011;33476;50.984;3.538;2022-09-03T06:21:13;13.35;;;11.00;;
47715;SDS011;33476;50.984;3.538;2022-09-03T06:23:39;13.23;;;9.85;;
47715;SDS011;33476;50.984;3.538;2022-09-03T06:26:06;14.45;;;10.30;;
47715;SDS011;33476;50.984;3.538;2022-09-03T06:28:34;13.63;;;10.18;;
47715;SDS011;33476;50.984;3.538;2022-09-03T06:31:02;17.58;;;10.48;;
47715;SDS011;33476;50.984;3.538;2022-09-03T06:33:30;12.88;;;10.10;;
47715;SDS011;33476;50.984;3.538;2022-09-03T06:35:57;15.23;;;11.02;;
47715;SDS011;33476;50.984;3.538;2022-09-03T06:38:27;15.10;;;11.02;;
47715;SDS011;33476;50.984;3.538;2022-09-03T06:40:59;19.17;;;11.70;;
47715;SDS011;33476;50.984;3.538;2022-09-03T06:43:32;14.45;;;11.07;;
47715;SDS011;33476;50.984;3.538;2022-09-03T06:46:02;16.98;;;11.02;;
47715;SDS011;33476;50.984;3.538;2022-09-03T06:48:31;15.73;;;11.55;;
47715;SDS011;33476;50.984;3.538;2022-09-03T06:51:01;14.20;;;11.30;;
47715;SDS011;33476;50.984;3.538;2022-09-03T06:53:35;17.40;;;11.07;;
47715;SDS011;33476;50.984;3.538;2022-09-03T06:56:03;15.40;;;10.02;;
47715;SDS011;33476;50.984;3.538;2022-09-03T06:58:31;14.73;;;10.98;;
47715;SDS011;33476;50.984;3.538;2022-09-03T07:01:01;14.75;;;10.25;;
47715;SDS011;33476;50.984;3.538;2022-09-03T07:03:30;18.35;;;10.98;;
47715;SDS011;33476;50.984;3.538;2022-09-03T07:05:59;16.27;;;11.05;;
47715;SDS011;33476;50.984;3.538;2022-09-03T07:08:34;15.38;;;10.40;;
47715;SDS011;33476;50.984;3.538;2022-09-03T07:11:00;15.27;;;10.27;;
47715;SDS011;33476;50.984;3.538;2022-09-03T07:13:37;14.18;;;9.38;;
47715;SDS011;33476;50.984;3.538;2022-09-03T07:16:06;14.75;;;9.45;;
47715;SDS011;33476;50.984;3.538;2022-09-03T07:18:33;15.30;;;10.15;;
47715;SDS011;33476;50.984;3.538;2022-09-03T07:20:59;14.52;;;9.77;;
47715;SDS011;33476;50.984;3.538;2022-09-03T07:23:26;13.05;;;10.13;;
47715;SDS011;33476;50.984;3.538;2022-09-03T07:25:55;17.20;;;10.18;;
47715;SDS011;33476;50.984;3.538;2022-09-03T07:28:23;14.80;;;10.80;;
47715;SDS011;33476;50.984;3.538;2022-09-03T07:30:49;16.50;;;11.15;;
47715;SDS011;33476;50.984;3.538;2022-09-03T07:33:16;18.20;;;10.85;;
47715;SDS011;33476;50.984;3.538;2022-09-03T07:35:43;15.23;;;11.48;;
47715;SDS011;33476;50.984;3.538;2022-09-03T07:38:09;15.48;;;10.40;;
47715;SDS011;33476;50.984;3.538;2022-09-03T07:40:34;18.70;;;10.02;;
47715;SDS011;33476;50.984;3.538;2022-09-03T07:43:00;17.02;;;9.60;;
47715;SDS011;33476;50.984;3.538;2022-09-03T07:45:29;14.32;;;10.13;;
47715;SDS011;33476;50.984;3.538;2022-09-03T07:47:55;15.30;;;9.70;;
47715;SDS011;33476;50.984;3.538;2022-09-03T07:50:21;12.73;;;9.23;;
47715;SDS011;33476;50.984;3.538;2022-09-03T07:52:46;11.60;;;8.95;;
47715;SDS011;33476;50.984;3.538;2022-09-03T07:55:12;13.77;;;9.38;;
47715;SDS011;33476;50.984;3.538;2022-09-03T07:57:38;13.65;;;8.90;;
47715;SDS011;33476;50.984;3.538;2022-09-03T08:00:03;11.50;;;9.75;;
47715;SDS011;33476;50.984;3.538;2022-09-03T08:02:32;10.57;;;8.25;;
47715;SDS011;33476;50.984;3.538;2022-09-03T08:04:57;10.57;;;8.32;;
47715;SDS011;33476;50.984;3.538;2022-09-03T08:07:23;12.65;;;8.35;;
47715;SDS011;33476;50.984;3.538;2022-09-03T08:09:48;13.73;;;8.13;;
47715;SDS011;33476;50.984;3.538;2022-09-03T08:12:14;11.10;;;8.05;;
47715;SDS011;33476;50.984;3.538;2022-09-03T08:14:40;11.50;;;7.30;;
47715;SDS011;33476;50.984;3.538;2022-09-03T08:17:05;10.90;;;8.15;;
47715;SDS011;33476;50.984;3.538;2022-09-03T08:19:31;10.43;;;7.85;;
47715;SDS011;33476;50.984;3.538;2022-09-03T08:21:57;10.80;;;7.25;;
47715;SDS011;33476;50.984;3.538;2022-09-03T08:24:22;12.07;;;7.50;;
47715;SDS011;33476;50.984;3.538;2022-09-03T08:26:50;10.88;;;6.85;;
47715;SDS011;33476;50.984;3.538;2022-09-03T08:29:16;10.45;;;7.80;;
47715;SDS011;33476;50.984;3.538;2022-09-03T08:31:41;12.90;;;7.20;;
47715;SDS011;33476;50.984;3.538;2022-09-03T08:34:07;11.48;;;6.43;;
47715;SDS011;33476;50.984;3.538;2022-09-03T08:36:36;11.20;;;6.95;;
47715;SDS011;33476;50.984;3.538;2022-09-03T08:39:04;8.88;;;6.47;;
47715;SDS011;33476;50.984;3.538;2022-09-03T08:44:55;8.90;;;6.00;;
47715;SDS011;33476;50.984;3.538;2022-09-03T08:50:41;7.10;;;6.40;;
47715;SDS011;33476;50.984;3.538;2022-09-03T08:56:13;8.77;;;6.15;;
47715;SDS011;33476;50.984;3.538;2022-09-03T08:58:45;7.13;;;6.05;;
47715;SDS011;33476;50.984;3.538;2022-09-03T09:09:31;8.30;;;6.47;;
47715;SDS011;33476;50.984;3.538;2022-09-03T09:12:27;7.03;;;5.95;;
47715;SDS011;33476;50.984;3.538;2022-09-03T09:17:56;7.80;;;5.10;;
47715;SDS011;33476;50.984;3.538;2022-09-03T09:20:36;7.85;;;5.97;;
47715;SDS011;33476;50.984;3.538;2022-09-03T09:23:06;6.80;;;6.07;;
47715;SDS011;33476;50.984;3.538;2022-09-03T09:25:40;8.18;;;6.03;;
47715;SDS011;33476;50.984;3.538;2022-09-03T09:30:47;8.07;;;5.50;;
47715;SDS011;33476;50.984;3.538;2022-09-03T09:33:14;6.28;;;4.55;;
47715;SDS011;33476;50.984;3.538;2022-09-03T09:35:41;9.77;;;5.30;;
47715;SDS011;33476;50.984;3.538;2022-09-03T09:38:07;6.90;;;4.65;;
47715;SDS011;33476;50.984;3.538;2022-09-03T09:40:35;4.78;;;4.22;;
47715;SDS011;33476;50.984;3.538;2022-09-03T09:43:13;5.65;;;4.07;;
47715;SDS011;33476;50.984;3.538;2022-09-03T09:45:46;4.43;;;3.35;;
47715;SDS011;33476;50.984;3.538;2022-09-03T09:48:19;8.38;;;4.50;;
47715;SDS011;33476;50.984;3.538;2022-09-03T09:51:05;6.28;;;3.85;;
47715;SDS011;33476;50.984;3.538;2022-09-03T09:53:34;5.05;;;3.20;;
47715;SDS011;33476;50.984;3.538;2022-09-03T09:56:00;5.68;;;3.05;;
47715;SDS011;33476;50.984;3.538;2022-09-03T09:58:27;5.45;;;3.60;;
47715;SDS011;33476;50.984;3.538;2022-09-03T10:00:59;10.23;;;3.10;;
47715;SDS011;33476;50.984;3.538;2022-09-03T10:03:32;7.00;;;2.97;;
47715;SDS011;33476;50.984;3.538;2022-09-03T10:06:02;3.10;;;2.70;;
47715;SDS011;33476;50.984;3.538;2022-09-03T10:08:50;5.25;;;2.70;;
47715;SDS011;33476;50.984;3.538;2022-09-03T10:11:18;4.63;;;2.90;;
47715;SDS011;33476;50.984;3.538;2022-09-03T10:13:46;5.18;;;3.33;;
47715;SDS011;33476;50.984;3.538;2022-09-03T10:18:49;4.55;;;3.97;;
47715;SDS011;33476;50.984;3.538;2022-09-03T10:26:49;4.63;;;3.75;;
47715;SDS011;33476;50.984;3.538;2022-09-03T10:29:20;11.13;;;4.30;;
47715;SDS011;33476;50.984;3.538;2022-09-03T10:44:58;7.93;;;5.40;;
47715;SDS011;33476;50.984;3.538;2022-09-03T10:58:23;8.52;;;5.43;;
47715;SDS011;33476;50.984;3.538;2022-09-03T11:00:59;7.22;;;5.82;;
47715;SDS011;33476;50.984;3.538;2022-09-03T11:03:48;8.75;;;6.40;;
47715;SDS011;33476;50.984;3.538;2022-09-03T11:06:29;8.60;;;6.57;;
47715;SDS011;33476;50.984;3.538;2022-09-03T11:11:55;8.35;;;5.45;;
47715;SDS011;33476;50.984;3.538;2022-09-03T11:14:33;7.82;;;5.72;;
47715;SDS011;33476;50.984;3.538;2022-09-03T11:17:01;10.15;;;7.03;;
47715;SDS011;33476;50.984;3.538;2022-09-03T11:19:50;9.35;;;6.22;;
47715;SDS011;33476;50.984;3.538;2022-09-03T11:22:38;9.98;;;7.47;;
47715;SDS011;33476;50.984;3.538;2022-09-03T11:25:05;10.75;;;6.28;;
47715;SDS011;33476;50.984;3.538;2022-09-03T11:30:08;13.23;;;8.63;;
47715;SDS011;33476;50.984;3.538;2022-09-03T11:35:25;10.70;;;7.18;;
47715;SDS011;33476;50.984;3.538;2022-09-03T11:40:53;7.18;;;5.78;;
47715;SDS011;33476;50.984;3.538;2022-09-03T11:43:33;7.00;;;6.00;;
47715;SDS011;33476;50.984;3.538;2022-09-03T11:48:50;7.38;;;5.72;;
47715;SDS011;33476;50.984;3.538;2022-09-03T11:56:19;8.73;;;6.68;;
47715;SDS011;33476;50.984;3.538;2022-09-03T11:58:45;8.05;;;6.55;;
47715;SDS011;33476;50.984;3.538;2022-09-03T12:01:15;9.30;;;6.15;;
47715;SDS011;33476;50.984;3.538;2022-09-03T12:06:18;5.20;;;4.53;;
47715;SDS011;33476;50.984;3.538;2022-09-03T12:12:13;5.35;;;4.55;;
47715;SDS011;33476;50.984;3.538;2022-09-03T12:14:50;8.65;;;4.05;;
47715;SDS011;33476;50.984;3.538;2022-09-03T12:20:42;5.90;;;3.67;;
47715;SDS011;33476;50.984;3.538;2022-09-03T12:23:12;7.00;;;3.28;;
47715;SDS011;33476;50.984;3.538;2022-09-03T12:25:50;5.45;;;3.08;;
47715;SDS011;33476;50.984;3.538;2022-09-03T12:28:18;3.97;;;2.55;;
47715;SDS011;33476;50.984;3.538;2022-09-03T12:33:15;4.78;;;3.22;;
47715;SDS011;33476;50.984;3.538;2022-09-03T12:35:42;3.72;;;3.05;;
47715;SDS011;33476;50.984;3.538;2022-09-03T12:38:07;3.58;;;2.72;;
47715;SDS011;33476;50.984;3.538;2022-09-03T12:40:33;4.75;;;2.45;;
47715;SDS011;33476;50.984;3.538;2022-09-03T12:43:15;6.30;;;2.35;;
47715;SDS011;33476;50.984;3.538;2022-09-03T12:45:48;3.17;;;2.30;;
47715;SDS011;33476;50.984;3.538;2022-09-03T12:48:18;3.22;;;2.47;;
47715;SDS011;33476;50.984;3.538;2022-09-03T12:50:45;5.28;;;3.35;;
47715;SDS011;33476;50.984;3.538;2022-09-03T12:53:22;2.28;;;1.27;;
47715;SDS011;33476;50.984;3.538;2022-09-03T12:55:56;0.90;;;0.60;;
47715;SDS011;33476;50.984;3.538;2022-09-03T12:58:35;1.20;;;0.80;;
47715;SDS011;33476;50.984;3.538;2022-09-03T13:01:19;1.75;;;0.70;;
47715;SDS011;33476;50.984;3.538;2022-09-03T13:06:25;2.20;;;0.60;;
47715;SDS011;33476;50.984;3.538;2022-09-03T13:08:56;3.22;;;1.60;;
47715;SDS011;33476;50.984;3.538;2022-09-03T13:11:24;2.42;;;1.55;;
47715;SDS011;33476;50.984;3.538;2022-09-03T13:22:13;2.95;;;1.48;;
47715;SDS011;33476;50.984;3.538;2022-09-03T13:30:20;1.75;;;0.75;;
47715;SDS011;33476;50.984;3.538;2022-09-03T13:33:18;2.17;;;0.85;;
47715;SDS011;33476;50.984;3.538;2022-09-03T13:35:53;2.83;;;0.60;;
47715;SDS011;33476;50.984;3.538;2022-09-03T13:41:11;2.08;;;0.82;;
47715;SDS011;33476;50.984;3.538;2022-09-03T13:46:26;1.30;;;0.77;;
47715;SDS011;33476;50.984;3.538;2022-09-03T13:49:03;2.50;;;0.80;;
47715;SDS011;33476;50.984;3.538;2022-09-03T13:51:57;2.05;;;1.00;;
47715;SDS011;33476;50.984;3.538;2022-09-03T13:54:33;1.88;;;1.00;;
47715;SDS011;33476;50.984;3.538;2022-09-03T14:00:05;2.97;;;1.10;;
47715;SDS011;33476;50.984;3.538;2022-09-03T14:05:12;1.67;;;0.52;;
47715;SDS011;33476;50.984;3.538;2022-09-03T14:10:30;1.00;;;0.40;;
47715;SDS011;33476;50.984;3.538;2022-09-03T14:13:11;1.27;;;0.50;;
47715;SDS011;33476;50.984;3.538;2022-09-03T14:15:59;1.70;;;0.68;;
47715;SDS011;33476;50.984;3.538;2022-09-03T14:24:02;1.90;;;0.63;;
47715;SDS011;33476;50.984;3.538;2022-09-03T14:26:35;3.08;;;0.63;;
47715;SDS011;33476;50.984;3.538;2022-09-03T14:31:39;4.38;;;0.73;;
47715;SDS011;33476;50.984;3.538;2022-09-03T14:37:30;1.92;;;0.60;;
47715;SDS011;33476;50.984;3.538;2022-09-03T14:43:10;1.02;;;0.60;;
47715;SDS011;33476;50.984;3.538;2022-09-03T14:45:51;3.45;;;0.60;;
47715;SDS011;33476;50.984;3.538;2022-09-03T14:48:41;2.15;;;0.70;;
47715;SDS011;33476;50.984;3.538;2022-09-03T14:51:20;2.70;;;0.85;;
47715;SDS011;33476;50.984;3.538;2022-09-03T14:54:02;2.95;;;0.70;;
47715;SDS011;33476;50.984;3.538;2022-09-03T15:07:48;2.13;;;0.60;;
47715;SDS011;33476;50.984;3.538;2022-09-03T15:10:23;1.60;;;0.57;;
47715;SDS011;33476;50.984;3.538;2022-09-03T15:13:09;2.40;;;0.60;;
47715;SDS011;33476;50.984;3.538;2022-09-03T15:29:28;1.00;;;0.50;;
47715;SDS011;33476;50.984;3.538;2022-09-03T15:34:56;2.42;;;0.50;;
47715;SDS011;33476;50.984;3.538;2022-09-03T15:42:55;1.30;;;0.90;;
47715;SDS011;33476;50.984;3.538;2022-09-03T15:45:33;5.53;;;1.30;;
47715;SDS011;33476;50.984;3.538;2022-09-03T15:48:22;1.98;;;1.00;;
47715;SDS011;33476;50.984;3.538;2022-09-03T15:58:56;1.55;;;0.40;;
47715;SDS011;33476;50.984;3.538;2022-09-03T16:01:31;1.45;;;0.70;;
47715;SDS011;33476;50.984;3.538;2022-09-03T16:09:35;2.38;;;0.50;;
47715;SDS011;33476;50.984;3.538;2022-09-03T16:12:19;1.10;;;0.40;;
47715;SDS011;33476;50.984;3.538;2022-09-03T16:15:06;0.70;;;0.50;;
47715;SDS011;33476;50.984;3.538;2022-09-03T16:17:38;3.95;;;0.45;;
47715;SDS011;33476;50.984;3.538;2022-09-03T16:20:22;1.80;;;1.05;;
47715;SDS011;33476;50.984;3.538;2022-09-03T16:22:56;2.75;;;1.20;;
47715;SDS011;33476;50.984;3.538;2022-09-03T16:31:03;2.20;;;0.95;;
47715;SDS011;33476;50.984;3.538;2022-09-03T16:33:42;2.30;;;0.80;;
47715;SDS011;33476;50.984;3.538;2022-09-03T16:39:47;2.08;;;0.70;;
47715;SDS011;33476;50.984;3.538;2022-09-03T16:48:14;3.58;;;1.05;;
47715;SDS011;33476;50.984;3.538;2022-09-03T16:53:41;2.03;;;0.52;;
47715;SDS011;33476;50.984;3.538;2022-09-03T17:02:09;1.52;;;0.45;;
47715;SDS011;33476;50.984;3.538;2022-09-03T17:07:33;2.22;;;0.52;;
47715;SDS011;33476;50.984;3.538;2022-09-03T17:10:29;2.08;;;0.30;;
47715;SDS011;33476;50.984;3.538;2022-09-03T17:16:25;1.60;;;0.30;;
47715;SDS011;33476;50.984;3.538;2022-09-03T17:25:03;1.05;;;0.32;;
47715;SDS011;33476;50.984;3.538;2022-09-03T17:27:47;1.13;;;0.38;;
47715;SDS011;33476;50.984;3.538;2022-09-03T17:48:59;0.88;;;0.40;;
47715;SDS011;33476;50.984;3.538;2022-09-03T17:54:05;2.90;;;0.73;;
47715;SDS011;33476;50.984;3.538;2022-09-03T17:56:47;2.33;;;0.60;;
47715;SDS011;33476;50.984;3.538;2022-09-03T17:59:18;2.80;;;0.50;;
47715;SDS011;33476;50.984;3.538;2022-09-03T18:01:51;2.67;;;0.75;;
47715;SDS011;33476;50.984;3.538;2022-09-03T18:10:09;1.92;;;0.47;;
47715;SDS011;33476;50.984;3.538;2022-09-03T18:12:48;0.80;;;0.37;;
47715;SDS011;33476;50.984;3.538;2022-09-03T18:17:57;3.63;;;0.80;;
47715;SDS011;33476;50.984;3.538;2022-09-03T18:20:29;1.50;;;0.82;;
47715;SDS011;33476;50.984;3.538;2022-09-03T18:23:28;2.33;;;0.88;;
47715;SDS011;33476;50.984;3.538;2022-09-03T18:26:36;1.40;;;0.80;;
47715;SDS011;33476;50.984;3.538;2022-09-03T18:29:36;3.27;;;0.60;;
47715;SDS011;33476;50.984;3.538;2022-09-03T18:32:28;2.17;;;0.60;;
47715;SDS011;33476;50.984;3.538;2022-09-03T18:35:12;2.95;;;1.00;;
47715;SDS011;33476;50.984;3.538;2022-09-03T18:37:57;1.80;;;0.65;;
47715;SDS011;33476;50.984;3.538;2022-09-03T18:53:01;8.18;;;2.50;;
47715;SDS011;33476;50.984;3.538;2022-09-03T18:56:07;7.65;;;2.75;;
47715;SDS011;33476;50.984;3.538;2022-09-03T19:01:57;8.60;;;3.67;;
47715;SDS011;33476;50.984;3.538;2022-09-03T19:08:01;7.90;;;3.47;;
47715;SDS011;33476;50.984;3.538;2022-09-03T19:11:00;9.20;;;4.45;;
47715;SDS011;33476;50.984;3.538;2022-09-03T19:13:55;7.32;;;4.22;;
47715;SDS011;33476;50.984;3.538;2022-09-03T19:16:54;8.23;;;4.55;;
47715;SDS011;33476;50.984;3.538;2022-09-03T19:20:08;11.85;;;5.65;;
47715;SDS011;33476;50.984;3.538;2022-09-03T19:23:14;7.93;;;4.30;;
47715;SDS011;33476;50.984;3.538;2022-09-03T19:26:09;10.70;;;5.13;;
47715;SDS011;33476;50.984;3.538;2022-09-03T19:29:06;7.22;;;4.93;;
47715;SDS011;33476;50.984;3.538;2022-09-03T19:32:02;8.85;;;4.70;;
47715;SDS011;33476;50.984;3.538;2022-09-03T19:41:33;6.40;;;5.32;;
47715;SDS011;33476;50.984;3.538;2022-09-03T19:44:41;5.88;;;4.97;;
47715;SDS011;33476;50.984;3.538;2022-09-03T19:47:39;13.15;;;5.35;;
47715;SDS011;33476;50.984;3.538;2022-09-03T19:50:35;8.70;;;4.68;;
47715;SDS011;33476;50.984;3.538;2022-09-03T19:53:24;7.45;;;5.30;;
47715;SDS011;33476;50.984;3.538;2022-09-03T19:56:14;9.48;;;5.00;;
47715;SDS011;33476;50.984;3.538;2022-09-03T19:59:11;8.40;;;4.95;;
47715;SDS011;33476;50.984;3.538;2022-09-03T20:02:00;7.50;;;4.32;;
47715;SDS011;33476;50.984;3.538;2022-09-03T20:04:52;11.60;;;6.55;;
47715;SDS011;33476;50.984;3.538;2022-09-03T20:07:41;11.98;;;7.90;;
47715;SDS011;33476;50.984;3.538;2022-09-03T20:10:27;11.52;;;7.53;;
47715;SDS011;33476;50.984;3.538;2022-09-03T20:13:04;11.45;;;7.97;;
47715;SDS011;33476;50.984;3.538;2022-09-03T20:21:35;12.20;;;9.32;;
47715;SDS011;33476;50.984;3.538;2022-09-03T20:29:25;17.48;;;11.13;;
47715;SDS011;33476;50.984;3.538;2022-09-03T20:32:34;16.05;;;12.05;;
47715;SDS011;33476;50.984;3.538;2022-09-03T20:43:12;16.48;;;12.30;;
47715;SDS011;33476;50.984;3.538;2022-09-03T20:51:45;18.60;;;13.25;;
47715;SDS011;33476;50.984;3.538;2022-09-03T20:54:28;23.05;;;14.15;;
47715;SDS011;33476;50.984;3.538;2022-09-03T20:57:12;20.17;;;14.00;;
47715;SDS011;33476;50.984;3.538;2022-09-03T21:16:18;32.95;;;22.20;;
47715;SDS011;33476;50.984;3.538;2022-09-03T21:24:20;36.72;;;25.67;;
47715;SDS011;33476;50.984;3.538;2022-09-03T21:26:47;41.03;;;27.60;;
47715;SDS011;33476;50.984;3.538;2022-09-03T21:32:03;41.00;;;28.30;;
47715;SDS011;33476;50.984;3.538;2022-09-03T21:34:36;40.42;;;27.90;;
47715;SDS011;33476;50.984;3.538;2022-09-03T21:37:05;42.53;;;30.73;;
47715;SDS011;33476;50.984;3.538;2022-09-03T21:40:08;42.63;;;28.75;;
47715;SDS011;33476;50.984;3.538;2022-09-03T21:47:39;46.38;;;31.15;;
47715;SDS011;33476;50.984;3.538;2022-09-03T21:52:50;48.72;;;31.92;;
47715;SDS011;33476;50.984;3.538;2022-09-03T22:00:59;43.10;;;28.90;;